TimePDT,TemperatureF,Dew PointF,Humidity,Sea Level PressureIn,VisibilityMPH,Wind Direction,Wind SpeedMPH,Gust SpeedMPH,PrecipitationIn,Events,Conditions,WindDirDegrees,DateUTC
12:53 AM,66.0,57.9,75,29.94,10.0,Calm,Calm,-,N/A,,Mostly Cloudy,0,2013-09-11 07:53:00
1:16 AM,66.2,57.2,73,29.94,10.0,ESE,3.5,-,N/A,,Scattered Clouds,110,2013-09-11 08:16:00
1:53 AM,64.9,57.9,78,29.94,10.0,Calm,Calm,-,N/A,,Clear,0,2013-09-11 08:53:00
2:53 AM,64.9,57.9,78,29.94,10.0,Calm,Calm,-,N/A,,Clear,0,2013-09-11 09:53:00
3:53 AM,64.0,57.9,80,29.94,10.0,Calm,Calm,-,N/A,,Clear,0,2013-09-11 10:53:00
4:53 AM,64.0,57.9,80,29.94,10.0,Calm,Calm,-,N/A,,Clear,0,2013-09-11 11:53:00
5:53 AM,64.0,57.9,80,29.96,10.0,Calm,Calm,-,N/A,,Clear,0,2013-09-11 12:53:00
6:10 AM,64.4,57.2,77,29.97,10.0,Calm,Calm,-,N/A,,Mostly Cloudy,0,2013-09-11 13:10:00
6:36 AM,64.4,57.2,77,29.97,10.0,Calm,Calm,-,N/A,,Overcast,0,2013-09-11 13:36:00
6:53 AM,64.9,57.9,78,29.97,10.0,Calm,Calm,-,N/A,,Overcast,0,2013-09-11 13:53:00
7:53 AM,66.0,59.0,78,29.98,8.0,Calm,Calm,-,N/A,,Overcast,0,2013-09-11 14:53:00
8:53 AM,66.9,59.0,76,29.99,6.0,Calm,Calm,-,N/A,,Haze,0,2013-09-11 15:53:00
9:31 AM,68.0,59.0,73,29.99,6.0,Calm,Calm,-,N/A,,Haze,0,2013-09-11 16:31:00
9:53 AM,69.1,59.0,70,29.99,6.0,Calm,Calm,-,N/A,,Haze,0,2013-09-11 16:53:00
10:53 AM,71.1,59.0,66,29.99,5.0,Calm,Calm,-,N/A,,Haze,0,2013-09-11 17:53:00
11:44 AM,73.4,59.0,61,29.99,6.0,Variable,5.8,-,N/A,,Haze,0,2013-09-11 18:44:00
11:53 AM,75.0,59.0,57,29.98,6.0,WNW,4.6,-,N/A,,Haze,290,2013-09-11 18:53:00
12:53 PM,77.0,59.0,54,29.96,8.0,Calm,Calm,-,N/A,,Clear,0,2013-09-11 19:53:00
1:53 PM,78.1,59.0,52,29.94,10.0,Variable,4.6,-,N/A,,Clear,0,2013-09-11 20:53:00
2:53 PM,79.0,57.9,48,29.93,10.0,SSW,11.5,-,N/A,,Clear,210,2013-09-11 21:53:00
3:53 PM,77.0,57.9,52,29.92,10.0,Variable,5.8,-,N/A,,Clear,0,2013-09-11 22:53:00
4:53 PM,80.1,57.9,47,29.91,10.0,West,4.6,-,N/A,,Clear,280,2013-09-11 23:53:00
5:53 PM,77.0,59.0,54,29.90,10.0,West,4.6,-,N/A,,Clear,270,2013-09-12 00:53:00
6:53 PM,73.0,59.0,61,29.91,10.0,WNW,5.8,-,N/A,,Clear,290,2013-09-12 01:53:00
7:53 PM,70.0,59.0,68,29.91,10.0,WNW,3.5,-,N/A,,Clear,290,2013-09-12 02:53:00
8:53 PM,68.0,59.0,73,29.93,10.0,WNW,4.6,-,N/A,,Clear,290,2013-09-12 03:53:00
9:53 PM,66.9,59.0,76,29.93,10.0,Calm,Calm,-,N/A,,Clear,0,2013-09-12 04:53:00
10:53 PM,66.9,59.0,76,29.94,10.0,Calm,Calm,-,N/A,,Clear,0,2013-09-12 05:53:00
11:53 PM,66.0,59.0,78,29.94,10.0,WNW,3.5,-,N/A,,Clear,290,2013-09-12 06:53:00